Terminal Aerodrome Forecast
Issued by NWS Key West, FL

Home | Current Version | Previous Version | Text Only | Print | Product List | Glossary On
Versions: 1 2 3 4 5 6 7 8 9 10 11 12 13 14 15 16 17 18 19 20 21 22 23 24 25 26 27 28 29 30 31 32 33 34 35 36 37 38 39 40 41 42 43 44
000
FTUS42 KKEY 221120
TAFEYW
TAF
KEYW 221120Z 2212/2312 20016G23KT P6SM SCT022 SCT050
     FM230000 21021G28KT P6SM SCT022 BKN050
     FM230300 21022G30KT P6SM SCT022 OVC050
      TEMPO 2306/2310 27030G40KT 1SM +TSRA BKN022CB OVC050
     FM231000 27022G30KT P6SM SCT022 OVC050=

USA.gov is the U.S. government's official web portal to all federal, state and local government web resources and services.